sensor_id;sensor_type;location;lat;lon;timestamp;temperature;humidity
9403;DHT22;4741;49.834;10.740;2022-07-29T00:01:40;17.90;99.90
9403;DHT22;4741;49.834;10.740;2022-07-29T00:04:06;17.80;99.90
9403;DHT22;4741;49.834;10.740;2022-07-29T00:06:33;17.60;99.90
9403;DHT22;4741;49.834;10.740;2022-07-29T00:09:00;17.90;99.90
9403;DHT22;4741;49.834;10.740;2022-07-29T00:11:27;17.50;99.90
9403;DHT22;4741;49.834;10.740;2022-07-29T00:13:55;19.50;99.90
9403;DHT22;4741;49.834;10.740;2022-07-29T00:16:21;17.60;99.90
9403;DHT22;4741;49.834;10.740;2022-07-29T00:18:49;18.80;99.90
9403;DHT22;4741;49.834;10.740;2022-07-29T00:21:16;18.70;99.90
9403;DHT22;4741;49.834;10.740;2022-07-29T00:23:43;18.50;99.90
9403;DHT22;4741;49.834;10.740;2022-07-29T00:26:10;19.00;99.90
9403;DHT22;4741;49.834;10.740;2022-07-29T00:28:36;18.80;99.90
9403;DHT22;4741;49.834;10.740;2022-07-29T00:31:03;17.80;99.90
9403;DHT22;4741;49.834;10.740;2022-07-29T00:33:30;19.30;99.90
9403;DHT22;4741;49.834;10.740;2022-07-29T00:35:57;19.40;99.90
9403;DHT22;4741;49.834;10.740;2022-07-29T00:38:24;18.90;99.90
9403;DHT22;4741;49.834;10.740;2022-07-29T00:40:51;18.40;99.90
9403;DHT22;4741;49.834;10.740;2022-07-29T00:43:18;18.60;99.90
9403;DHT22;4741;49.834;10.740;2022-07-29T00:45:45;18.70;99.90
9403;DHT22;4741;49.834;10.740;2022-07-29T00:48:12;18.80;99.90
9403;DHT22;4741;49.834;10.740;2022-07-29T00:50:39;19.70;99.90
9403;DHT22;4741;49.834;10.740;2022-07-29T00:53:06;17.30;99.90
9403;DHT22;4741;49.834;10.740;2022-07-29T00:55:33;17.70;99.90
9403;DHT22;4741;49.834;10.740;2022-07-29T00:58:01;17.80;99.90
9403;DHT22;4741;49.834;10.740;2022-07-29T01:00:28;19.30;99.90
9403;DHT22;4741;49.834;10.740;2022-07-29T01:02:55;19.30;99.90
9403;DHT22;4741;49.834;10.740;2022-07-29T01:05:23;19.10;99.90
9403;DHT22;4741;49.834;10.740;2022-07-29T01:08:10;16.40;99.90
9403;DHT22;4741;49.834;10.740;2022-07-29T01:10:38;17.30;99.90
9403;DHT22;4741;49.834;10.740;2022-07-29T01:13:05;17.20;99.90
9403;DHT22;4741;49.834;10.740;2022-07-29T01:15:34;17.20;99.90
9403;DHT22;4741;49.834;10.740;2022-07-29T01:18:16;17.00;99.90
9403;DHT22;4741;49.834;10.740;2022-07-29T01:31:11;17.50;99.90
9403;DHT22;4741;49.834;10.740;2022-07-29T01:33:55;18.60;99.90
9403;DHT22;4741;49.834;10.740;2022-07-29T01:36:29;19.00;99.90
9403;DHT22;4741;49.834;10.740;2022-07-29T01:39:11;17.30;99.90
9403;DHT22;4741;49.834;10.740;2022-07-29T01:41:40;17.40;99.90
9403;DHT22;4741;49.834;10.740;2022-07-29T01:44:12;17.80;99.90
9403;DHT22;4741;49.834;10.740;2022-07-29T01:46:41;17.20;99.90
9403;DHT22;4741;49.834;10.740;2022-07-29T01:49:17;17.00;99.90
9403;DHT22;4741;49.834;10.740;2022-07-29T01:51:46;17.30;99.90
9403;DHT22;4741;49.834;10.740;2022-07-29T01:57:03;17.60;99.90
9403;DHT22;4741;49.834;10.740;2022-07-29T01:59:31;17.30;99.90
9403;DHT22;4741;49.834;10.740;2022-07-29T02:04:27;17.10;99.90
9403;DHT22;4741;49.834;10.740;2022-07-29T02:06:57;19.90;99.90
9403;DHT22;4741;49.834;10.740;2022-07-29T02:09:25;17.10;99.90
9403;DHT22;4741;49.834;10.740;2022-07-29T02:11:53;17.00;99.90
9403;DHT22;4741;49.834;10.740;2022-07-29T02:14:21;16.90;99.90
9403;DHT22;4741;49.834;10.740;2022-07-29T02:29:05;16.60;99.90
9403;DHT22;4741;49.834;10.740;2022-07-29T02:31:33;17.10;99.90
9403;DHT22;4741;49.834;10.740;2022-07-29T02:34:01;16.80;99.90
9403;DHT22;4741;49.834;10.740;2022-07-29T02:36:28;16.20;99.90
9403;DHT22;4741;49.834;10.740;2022-07-29T02:38:56;15.50;99.90
9403;DHT22;4741;49.834;10.740;2022-07-29T02:41:26;17.00;99.90
9403;DHT22;4741;49.834;10.740;2022-07-29T02:43:58;15.40;99.90
9403;DHT22;4741;49.834;10.740;2022-07-29T02:46:32;16.60;99.90
9403;DHT22;4741;49.834;10.740;2022-07-29T02:49:23;16.50;99.90
9403;DHT22;4741;49.834;10.740;2022-07-29T02:54:56;16.40;99.90
9403;DHT22;4741;49.834;10.740;2022-07-29T02:57:34;16.60;99.90
9403;DHT22;4741;49.834;10.740;2022-07-29T03:00:21;16.70;99.90
9403;DHT22;4741;49.834;10.740;2022-07-29T03:02:50;16.90;99.90
9403;DHT22;4741;49.834;10.740;2022-07-29T03:05:18;17.50;99.90
9403;DHT22;4741;49.834;10.740;2022-07-29T03:07:47;17.70;99.90
9403;DHT22;4741;49.834;10.740;2022-07-29T03:10:15;17.60;99.90
9403;DHT22;4741;49.834;10.740;2022-07-29T03:12:42;17.80;99.90
9403;DHT22;4741;49.834;10.740;2022-07-29T03:15:10;16.10;99.90
9403;DHT22;4741;49.834;10.740;2022-07-29T03:17:37;17.40;99.90
9403;DHT22;4741;49.834;10.740;2022-07-29T03:20:04;16.10;99.90
9403;DHT22;4741;49.834;10.740;2022-07-29T03:22:31;15.60;99.90
9403;DHT22;4741;49.834;10.740;2022-07-29T03:24:58;16.00;99.90
9403;DHT22;4741;49.834;10.740;2022-07-29T03:27:34;15.60;99.90
9403;DHT22;4741;49.834;10.740;2022-07-29T03:30:01;15.90;99.90
9403;DHT22;4741;49.834;10.740;2022-07-29T03:54:33;15.80;99.90
9403;DHT22;4741;49.834;10.740;2022-07-29T03:57:01;15.60;99.90
9403;DHT22;4741;49.834;10.740;2022-07-29T03:59:28;15.70;99.90
9403;DHT22;4741;49.834;10.740;2022-07-29T04:01:57;15.70;99.90
9403;DHT22;4741;49.834;10.740;2022-07-29T04:04:24;15.90;99.90
9403;DHT22;4741;49.834;10.740;2022-07-29T04:06:52;15.90;99.90
9403;DHT22;4741;49.834;10.740;2022-07-29T04:19:22;16.30;99.90
9403;DHT22;4741;49.834;10.740;2022-07-29T04:21:49;16.20;99.90
9403;DHT22;4741;49.834;10.740;2022-07-29T04:24:16;16.20;99.90
9403;DHT22;4741;49.834;10.740;2022-07-29T04:26:47;16.20;99.90
9403;DHT22;4741;49.834;10.740;2022-07-29T04:29:20;16.60;99.90
9403;DHT22;4741;49.834;10.740;2022-07-29T04:31:49;16.00;99.90
9403;DHT22;4741;49.834;10.740;2022-07-29T04:34:22;16.30;99.90
9403;DHT22;4741;49.834;10.740;2022-07-29T04:37:10;16.50;99.90
9403;DHT22;4741;49.834;10.740;2022-07-29T04:39:42;16.60;99.90
9403;DHT22;4741;49.834;10.740;2022-07-29T04:42:16;16.60;99.90
9403;DHT22;4741;49.834;10.740;2022-07-29T04:44:50;16.40;99.90
9403;DHT22;4741;49.834;10.740;2022-07-29T04:47:17;15.70;99.90
9403;DHT22;4741;49.834;10.740;2022-07-29T04:49:44;16.00;99.90
9403;DHT22;4741;49.834;10.740;2022-07-29T04:52:11;17.50;99.90
9403;DHT22;4741;49.834;10.740;2022-07-29T04:54:37;15.20;99.90
9403;DHT22;4741;49.834;10.740;2022-07-29T04:57:04;15.60;99.90
9403;DHT22;4741;49.834;10.740;2022-07-29T04:59:31;15.60;99.90
9403;DHT22;4741;49.834;10.740;2022-07-29T05:01:58;15.50;99.90
9403;DHT22;4741;49.834;10.740;2022-07-29T05:04:24;16.20;99.90
9403;DHT22;4741;49.834;10.740;2022-07-29T05:06:51;16.20;99.90
9403;DHT22;4741;49.834;10.740;2022-07-29T05:09:18;16.60;99.90
9403;DHT22;4741;49.834;10.740;2022-07-29T05:11:45;15.60;99.90
9403;DHT22;4741;49.834;10.740;2022-07-29T05:14:11;17.70;99.90
9403;DHT22;4741;49.834;10.740;2022-07-29T05:16:39;17.20;99.90
9403;DHT22;4741;49.834;10.740;2022-07-29T05:19:07;17.00;99.90
9403;DHT22;4741;49.834;10.740;2022-07-29T05:21:39;16.70;99.90
9403;DHT22;4741;49.834;10.740;2022-07-29T05:24:06;17.60;99.90
9403;DHT22;4741;49.834;10.740;2022-07-29T05:26:33;16.80;99.90
9403;DHT22;4741;49.834;10.740;2022-07-29T05:28:59;16.20;99.90
9403;DHT22;4741;49.834;10.740;2022-07-29T05:31:26;15.80;99.90
9403;DHT22;4741;49.834;10.740;2022-07-29T05:33:53;16.60;99.90
9403;DHT22;4741;49.834;10.740;2022-07-29T05:36:19;16.80;99.90
9403;DHT22;4741;49.834;10.740;2022-07-29T05:38:46;16.60;99.90
9403;DHT22;4741;49.834;10.740;2022-07-29T05:41:13;16.70;99.90
9403;DHT22;4741;49.834;10.740;2022-07-29T05:43:39;17.40;99.90
9403;DHT22;4741;49.834;10.740;2022-07-29T05:46:06;17.00;99.90
9403;DHT22;4741;49.834;10.740;2022-07-29T05:48:36;16.80;99.90
9403;DHT22;4741;49.834;10.740;2022-07-29T06:18:01;18.20;99.90
9403;DHT22;4741;49.834;10.740;2022-07-29T06:27:55;18.60;99.90
9403;DHT22;4741;49.834;10.740;2022-07-29T06:30:22;19.70;99.90
9403;DHT22;4741;49.834;10.740;2022-07-29T06:32:49;21.40;99.90
9403;DHT22;4741;49.834;10.740;2022-07-29T06:35:16;20.60;99.90
9403;DHT22;4741;49.834;10.740;2022-07-29T06:38:02;19.70;99.90
9403;DHT22;4741;49.834;10.740;2022-07-29T06:40:44;19.10;99.90
9403;DHT22;4741;49.834;10.740;2022-07-29T06:43:27;19.70;99.90
9403;DHT22;4741;49.834;10.740;2022-07-29T06:45:53;19.00;99.90
9403;DHT22;4741;49.834;10.740;2022-07-29T06:48:20;19.80;99.90
9403;DHT22;4741;49.834;10.740;2022-07-29T07:07:57;21.60;99.90
9403;DHT22;4741;49.834;10.740;2022-07-29T07:10:24;21.90;99.90
9403;DHT22;4741;49.834;10.740;2022-07-29T07:22:42;23.30;99.90
9403;DHT22;4741;49.834;10.740;2022-07-29T07:37:26;24.20;99.90
9403;DHT22;4741;49.834;10.740;2022-07-29T07:39:53;23.60;99.90
9403;DHT22;4741;49.834;10.740;2022-07-29T07:42:20;24.40;99.90
9403;DHT22;4741;49.834;10.740;2022-07-29T07:47:38;24.70;99.90
9403;DHT22;4741;49.834;10.740;2022-07-29T07:50:07;24.90;99.90
9403;DHT22;4741;49.834;10.740;2022-07-29T07:52:50;24.80;99.90
9403;DHT22;4741;49.834;10.740;2022-07-29T07:55:18;25.20;99.90
9403;DHT22;4741;49.834;10.740;2022-07-29T08:02:39;25.90;99.90
9403;DHT22;4741;49.834;10.740;2022-07-29T08:10:05;25.50;99.90
9403;DHT22;4741;49.834;10.740;2022-07-29T08:12:32;25.50;99.90
9403;DHT22;4741;49.834;10.740;2022-07-29T08:14:58;26.70;99.90
9403;DHT22;4741;49.834;10.740;2022-07-29T08:17:25;26.30;99.90
9403;DHT22;4741;49.834;10.740;2022-07-29T08:19:53;26.50;99.90
9403;DHT22;4741;49.834;10.740;2022-07-29T08:22:19;26.50;99.90
9403;DHT22;4741;49.834;10.740;2022-07-29T08:24:46;27.20;99.90
9403;DHT22;4741;49.834;10.740;2022-07-29T08:27:21;27.00;99.90
9403;DHT22;4741;49.834;10.740;2022-07-29T08:30:07;27.30;99.90
9403;DHT22;4741;49.834;10.740;2022-07-29T08:32:34;25.80;99.90
9403;DHT22;4741;49.834;10.740;2022-07-29T08:35:21;26.80;99.90
9403;DHT22;4741;49.834;10.740;2022-07-29T08:37:48;26.60;99.90
9403;DHT22;4741;49.834;10.740;2022-07-29T08:40:15;25.50;99.90
9403;DHT22;4741;49.834;10.740;2022-07-29T08:42:42;26.30;99.90
9403;DHT22;4741;49.834;10.740;2022-07-29T08:45:09;26.70;99.90
9403;DHT22;4741;49.834;10.740;2022-07-29T08:47:36;26.90;99.90
9403;DHT22;4741;49.834;10.740;2022-07-29T08:50:09;27.30;99.90
9403;DHT22;4741;49.834;10.740;2022-07-29T08:52:36;26.50;99.90
9403;DHT22;4741;49.834;10.740;2022-07-29T08:55:07;26.70;99.90
9403;DHT22;4741;49.834;10.740;2022-07-29T08:57:34;27.00;99.40
9403;DHT22;4741;49.834;10.740;2022-07-29T09:00:06;28.10;99.90
9403;DHT22;4741;49.834;10.740;2022-07-29T09:02:41;26.80;99.70
9403;DHT22;4741;49.834;10.740;2022-07-29T09:05:12;26.10;99.90
9403;DHT22;4741;49.834;10.740;2022-07-29T09:07:39;27.70;99.90
9403;DHT22;4741;49.834;10.740;2022-07-29T09:10:09;26.70;99.90
9403;DHT22;4741;49.834;10.740;2022-07-29T09:12:36;26.90;99.90
9403;DHT22;4741;49.834;10.740;2022-07-29T09:15:04;26.60;99.60
9403;DHT22;4741;49.834;10.740;2022-07-29T09:20:10;27.00;99.20
9403;DHT22;4741;49.834;10.740;2022-07-29T09:22:38;27.30;98.70
9403;DHT22;4741;49.834;10.740;2022-07-29T09:25:07;27.20;99.90
9403;DHT22;4741;49.834;10.740;2022-07-29T09:27:34;27.60;99.90
9403;DHT22;4741;49.834;10.740;2022-07-29T09:32:29;27.50;99.90
9403;DHT22;4741;49.834;10.740;2022-07-29T09:35:15;28.40;99.90
9403;DHT22;4741;49.834;10.740;2022-07-29T09:37:43;27.90;96.70
9403;DHT22;4741;49.834;10.740;2022-07-29T09:40:23;28.60;99.90
9403;DHT22;4741;49.834;10.740;2022-07-29T09:42:50;28.40;96.30
9403;DHT22;4741;49.834;10.740;2022-07-29T09:45:30;28.60;99.50
9403;DHT22;4741;49.834;10.740;2022-07-29T09:47:57;28.80;98.00
9403;DHT22;4741;49.834;10.740;2022-07-29T09:50:36;29.00;98.60
9403;DHT22;4741;49.834;10.740;2022-07-29T09:55:30;28.50;99.90
9403;DHT22;4741;49.834;10.740;2022-07-29T10:00:43;28.90;95.00
9403;DHT22;4741;49.834;10.740;2022-07-29T10:03:10;28.70;95.60
9403;DHT22;4741;49.834;10.740;2022-07-29T10:05:38;29.60;96.70
9403;DHT22;4741;49.834;10.740;2022-07-29T10:08:05;29.50;99.30
9403;DHT22;4741;49.834;10.740;2022-07-29T10:10:37;29.00;99.90
9403;DHT22;4741;49.834;10.740;2022-07-29T10:13:06;29.40;99.90
9403;DHT22;4741;49.834;10.740;2022-07-29T10:15:41;29.50;99.90
9403;DHT22;4741;49.834;10.740;2022-07-29T10:18:10;30.30;99.90
9403;DHT22;4741;49.834;10.740;2022-07-29T10:20:37;30.10;99.90
9403;DHT22;4741;49.834;10.740;2022-07-29T10:25:31;30.30;91.60
9403;DHT22;4741;49.834;10.740;2022-07-29T10:27:58;29.80;92.70
9403;DHT22;4741;49.834;10.740;2022-07-29T10:30:25;30.50;93.10
9403;DHT22;4741;49.834;10.740;2022-07-29T10:43:36;27.90;94.40
9403;DHT22;4741;49.834;10.740;2022-07-29T10:46:07;27.60;94.10
9403;DHT22;4741;49.834;10.740;2022-07-29T10:48:44;27.70;99.90
9403;DHT22;4741;49.834;10.740;2022-07-29T10:51:22;28.20;97.30
9403;DHT22;4741;49.834;10.740;2022-07-29T10:53:51;28.90;99.60
9403;DHT22;4741;49.834;10.740;2022-07-29T10:58:46;29.50;92.60
9403;DHT22;4741;49.834;10.740;2022-07-29T11:01:34;29.80;93.50
9403;DHT22;4741;49.834;10.740;2022-07-29T11:04:04;30.20;94.00
9403;DHT22;4741;49.834;10.740;2022-07-29T11:11:50;30.30;96.40
9403;DHT22;4741;49.834;10.740;2022-07-29T11:14:30;30.90;97.00
9403;DHT22;4741;49.834;10.740;2022-07-29T11:17:05;29.90;93.80
9403;DHT22;4741;49.834;10.740;2022-07-29T11:19:34;29.70;93.60
9403;DHT22;4741;49.834;10.740;2022-07-29T11:22:01;30.70;91.50
9403;DHT22;4741;49.834;10.740;2022-07-29T11:24:29;31.10;95.40
9403;DHT22;4741;49.834;10.740;2022-07-29T11:27:07;32.50;91.20
9403;DHT22;4741;49.834;10.740;2022-07-29T11:32:13;32.80;90.00
9403;DHT22;4741;49.834;10.740;2022-07-29T11:34:48;32.50;90.00
9403;DHT22;4741;49.834;10.740;2022-07-29T11:37:16;33.30;87.90
9403;DHT22;4741;49.834;10.740;2022-07-29T11:45:10;32.10;90.40
9403;DHT22;4741;49.834;10.740;2022-07-29T11:47:57;32.00;92.50
9403;DHT22;4741;49.834;10.740;2022-07-29T11:52:59;32.10;91.30
9403;DHT22;4741;49.834;10.740;2022-07-29T11:55:26;32.60;90.70
9403;DHT22;4741;49.834;10.740;2022-07-29T11:57:59;32.90;90.40
9403;DHT22;4741;49.834;10.740;2022-07-29T12:00:31;33.30;90.50
9403;DHT22;4741;49.834;10.740;2022-07-29T12:05:32;33.90;88.50
9403;DHT22;4741;49.834;10.740;2022-07-29T12:10:38;33.40;88.40
9403;DHT22;4741;49.834;10.740;2022-07-29T12:13:05;32.90;88.60
9403;DHT22;4741;49.834;10.740;2022-07-29T12:15:32;32.50;88.30
9403;DHT22;4741;49.834;10.740;2022-07-29T12:18:12;32.70;90.20
9403;DHT22;4741;49.834;10.740;2022-07-29T12:20:39;32.40;87.40
9403;DHT22;4741;49.834;10.740;2022-07-29T12:25:34;31.40;89.80
9403;DHT22;4741;49.834;10.740;2022-07-29T12:28:04;31.10;89.40
9403;DHT22;4741;49.834;10.740;2022-07-29T12:30:36;30.70;90.80
9403;DHT22;4741;49.834;10.740;2022-07-29T12:33:10;30.40;91.50
9403;DHT22;4741;49.834;10.740;2022-07-29T12:35:37;30.70;97.80
9403;DHT22;4741;49.834;10.740;2022-07-29T12:38:04;31.60;91.00
9403;DHT22;4741;49.834;10.740;2022-07-29T12:40:31;31.60;90.90
9403;DHT22;4741;49.834;10.740;2022-07-29T12:43:05;31.60;90.30
9403;DHT22;4741;49.834;10.740;2022-07-29T12:45:33;30.90;87.60
9403;DHT22;4741;49.834;10.740;2022-07-29T12:48:00;31.20;89.90
9403;DHT22;4741;49.834;10.740;2022-07-29T12:50:27;31.90;90.00
9403;DHT22;4741;49.834;10.740;2022-07-29T12:52:53;32.90;86.10
9403;DHT22;4741;49.834;10.740;2022-07-29T12:58:06;34.70;79.50
9403;DHT22;4741;49.834;10.740;2022-07-29T13:00:33;35.10;78.50
9403;DHT22;4741;49.834;10.740;2022-07-29T13:03:00;35.40;76.60
9403;DHT22;4741;49.834;10.740;2022-07-29T13:07:54;34.80;76.00
9403;DHT22;4741;49.834;10.740;2022-07-29T13:10:23;34.90;75.70
9403;DHT22;4741;49.834;10.740;2022-07-29T13:15:29;32.60;78.00
9403;DHT22;4741;49.834;10.740;2022-07-29T13:17:56;32.00;84.30
9403;DHT22;4741;49.834;10.740;2022-07-29T13:22:50;30.60;82.30
9403;DHT22;4741;49.834;10.740;2022-07-29T13:25:24;30.20;83.70
9403;DHT22;4741;49.834;10.740;2022-07-29T13:27:51;30.80;83.20
9403;DHT22;4741;49.834;10.740;2022-07-29T13:30:18;30.80;87.80
9403;DHT22;4741;49.834;10.740;2022-07-29T13:32:45;31.40;82.80
9403;DHT22;4741;49.834;10.740;2022-07-29T13:35:13;31.40;85.30
9403;DHT22;4741;49.834;10.740;2022-07-29T13:37:40;30.60;85.10
9403;DHT22;4741;49.834;10.740;2022-07-29T13:40:07;30.50;88.90
9403;DHT22;4741;49.834;10.740;2022-07-29T13:42:34;30.70;86.40
9403;DHT22;4741;49.834;10.740;2022-07-29T13:45:02;30.90;86.80
9403;DHT22;4741;49.834;10.740;2022-07-29T13:47:29;31.30;86.50
9403;DHT22;4741;49.834;10.740;2022-07-29T13:49:59;31.70;84.80
9403;DHT22;4741;49.834;10.740;2022-07-29T13:52:26;32.20;84.80
9403;DHT22;4741;49.834;10.740;2022-07-29T13:54:52;32.90;82.00
9403;DHT22;4741;49.834;10.740;2022-07-29T13:57:19;33.30;81.20
9403;DHT22;4741;49.834;10.740;2022-07-29T13:59:46;33.60;80.30
9403;DHT22;4741;49.834;10.740;2022-07-29T14:02:19;34.30;79.20
9403;DHT22;4741;49.834;10.740;2022-07-29T14:04:46;35.20;76.40
9403;DHT22;4741;49.834;10.740;2022-07-29T14:07:13;35.80;78.90
9403;DHT22;4741;49.834;10.740;2022-07-29T14:09:42;35.70;75.10
9403;DHT22;4741;49.834;10.740;2022-07-29T14:12:09;35.40;76.30
9403;DHT22;4741;49.834;10.740;2022-07-29T14:14:36;35.40;75.80
9403;DHT22;4741;49.834;10.740;2022-07-29T14:17:03;34.40;73.50
9403;DHT22;4741;49.834;10.740;2022-07-29T14:19:33;33.70;76.40
9403;DHT22;4741;49.834;10.740;2022-07-29T14:22:02;33.40;78.30
9403;DHT22;4741;49.834;10.740;2022-07-29T14:24:29;32.90;90.90
9403;DHT22;4741;49.834;10.740;2022-07-29T14:26:57;33.00;81.90
9403;DHT22;4741;49.834;10.740;2022-07-29T14:29:24;32.40;83.40
9403;DHT22;4741;49.834;10.740;2022-07-29T14:34:30;32.40;93.40
9403;DHT22;4741;49.834;10.740;2022-07-29T14:39:25;30.80;88.20
9403;DHT22;4741;49.834;10.740;2022-07-29T14:41:57;30.60;92.00
9403;DHT22;4741;49.834;10.740;2022-07-29T14:44:25;29.80;90.90
9403;DHT22;4741;49.834;10.740;2022-07-29T14:47:00;29.50;99.90
9403;DHT22;4741;49.834;10.740;2022-07-29T14:52:00;29.20;91.50
9403;DHT22;4741;49.834;10.740;2022-07-29T14:56:54;28.80;92.60
9403;DHT22;4741;49.834;10.740;2022-07-29T14:59:24;28.60;93.40
9403;DHT22;4741;49.834;10.740;2022-07-29T15:01:51;29.00;97.60
9403;DHT22;4741;49.834;10.740;2022-07-29T15:04:17;29.00;99.90
9403;DHT22;4741;49.834;10.740;2022-07-29T15:09:11;25.70;99.50
9403;DHT22;4741;49.834;10.740;2022-07-29T15:18:59;23.00;99.90
9403;DHT22;4741;49.834;10.740;2022-07-29T15:21:26;22.80;99.90
9403;DHT22;4741;49.834;10.740;2022-07-29T15:26:20;21.70;99.90
9403;DHT22;4741;49.834;10.740;2022-07-29T15:36:09;20.20;99.90
9403;DHT22;4741;49.834;10.740;2022-07-29T15:38:58;20.00;99.90
9403;DHT22;4741;49.834;10.740;2022-07-29T15:43:52;19.40;99.90
9403;DHT22;4741;49.834;10.740;2022-07-29T15:46:27;19.00;99.90
9403;DHT22;4741;49.834;10.740;2022-07-29T15:51:41;18.90;99.90
9403;DHT22;4741;49.834;10.740;2022-07-29T15:54:31;18.10;99.90
9403;DHT22;4741;49.834;10.740;2022-07-29T15:57:08;19.00;99.90
9403;DHT22;4741;49.834;10.740;2022-07-29T15:59:35;18.70;99.90
9403;DHT22;4741;49.834;10.740;2022-07-29T16:02:02;18.20;99.90
9403;DHT22;4741;49.834;10.740;2022-07-29T16:04:29;18.60;99.90
9403;DHT22;4741;49.834;10.740;2022-07-29T16:06:57;18.70;99.90
9403;DHT22;4741;49.834;10.740;2022-07-29T16:09:25;20.40;99.90
9403;DHT22;4741;49.834;10.740;2022-07-29T16:11:51;19.00;99.90
9403;DHT22;4741;49.834;10.740;2022-07-29T16:14:21;20.70;99.90
9403;DHT22;4741;49.834;10.740;2022-07-29T16:16:53;20.10;99.90
9403;DHT22;4741;49.834;10.740;2022-07-29T16:24:20;18.90;99.90
9403;DHT22;4741;49.834;10.740;2022-07-29T16:26:47;18.60;99.90
9403;DHT22;4741;49.834;10.740;2022-07-29T16:29:14;20.80;99.90
9403;DHT22;4741;49.834;10.740;2022-07-29T16:31:40;20.80;99.90
9403;DHT22;4741;49.834;10.740;2022-07-29T16:34:07;19.90;99.90
9403;DHT22;4741;49.834;10.740;2022-07-29T16:36:34;18.90;99.90
9403;DHT22;4741;49.834;10.740;2022-07-29T16:39:01;18.90;99.90
9403;DHT22;4741;49.834;10.740;2022-07-29T16:41:27;21.00;99.90
9403;DHT22;4741;49.834;10.740;2022-07-29T16:43:55;19.50;99.90
9403;DHT22;4741;49.834;10.740;2022-07-29T16:48:49;19.40;99.90
9403;DHT22;4741;49.834;10.740;2022-07-29T16:51:16;19.10;99.90
9403;DHT22;4741;49.834;10.740;2022-07-29T16:53:43;18.50;99.90
9403;DHT22;4741;49.834;10.740;2022-07-29T16:56:10;19.50;99.90
9403;DHT22;4741;49.834;10.740;2022-07-29T16:58:38;19.40;99.90
9403;DHT22;4741;49.834;10.740;2022-07-29T17:01:09;20.50;99.90
9403;DHT22;4741;49.834;10.740;2022-07-29T17:03:36;20.20;99.90
9403;DHT22;4741;49.834;10.740;2022-07-29T17:06:26;21.00;99.90
9403;DHT22;4741;49.834;10.740;2022-07-29T17:08:55;19.20;99.90
9403;DHT22;4741;49.834;10.740;2022-07-29T17:11:21;20.30;99.90
9403;DHT22;4741;49.834;10.740;2022-07-29T17:14:08;20.20;99.90
9403;DHT22;4741;49.834;10.740;2022-07-29T17:16:35;19.00;99.90
9403;DHT22;4741;49.834;10.740;2022-07-29T17:19:02;18.90;99.90
9403;DHT22;4741;49.834;10.740;2022-07-29T17:21:29;20.50;99.90
9403;DHT22;4741;49.834;10.740;2022-07-29T17:23:55;20.70;99.90
9403;DHT22;4741;49.834;10.740;2022-07-29T17:26:24;20.60;99.90
9403;DHT22;4741;49.834;10.740;2022-07-29T17:28:54;20.00;99.90
9403;DHT22;4741;49.834;10.740;2022-07-29T17:31:21;18.50;99.90
9403;DHT22;4741;49.834;10.740;2022-07-29T17:33:47;19.20;99.90
9403;DHT22;4741;49.834;10.740;2022-07-29T17:36:14;19.10;99.90
9403;DHT22;4741;49.834;10.740;2022-07-29T17:38:50;18.80;99.90
9403;DHT22;4741;49.834;10.740;2022-07-29T17:41:18;18.90;99.90
9403;DHT22;4741;49.834;10.740;2022-07-29T17:43:45;20.30;99.90
9403;DHT22;4741;49.834;10.740;2022-07-29T17:46:12;19.60;99.90
9403;DHT22;4741;49.834;10.740;2022-07-29T17:48:39;20.10;99.90
9403;DHT22;4741;49.834;10.740;2022-07-29T17:51:06;19.00;99.90
9403;DHT22;4741;49.834;10.740;2022-07-29T17:53:33;18.80;99.90
9403;DHT22;4741;49.834;10.740;2022-07-29T17:56:00;20.40;99.90
9403;DHT22;4741;49.834;10.740;2022-07-29T17:58:27;20.10;99.90
9403;DHT22;4741;49.834;10.740;2022-07-29T18:00:54;20.80;99.90
9403;DHT22;4741;49.834;10.740;2022-07-29T18:03:20;20.00;99.90
9403;DHT22;4741;49.834;10.740;2022-07-29T18:05:47;20.80;99.90
9403;DHT22;4741;49.834;10.740;2022-07-29T18:08:14;20.70;99.90
9403;DHT22;4741;49.834;10.740;2022-07-29T18:10:43;20.30;99.90
9403;DHT22;4741;49.834;10.740;2022-07-29T18:13:10;19.60;99.90
9403;DHT22;4741;49.834;10.740;2022-07-29T18:15:38;19.40;99.90
9403;DHT22;4741;49.834;10.740;2022-07-29T18:18:05;18.70;99.90
9403;DHT22;4741;49.834;10.740;2022-07-29T18:22:59;18.70;99.90
9403;DHT22;4741;49.834;10.740;2022-07-29T18:25:27;20.50;99.90
9403;DHT22;4741;49.834;10.740;2022-07-29T18:27:54;19.40;99.90
9403;DHT22;4741;49.834;10.740;2022-07-29T18:30:26;20.30;99.90
9403;DHT22;4741;49.834;10.740;2022-07-29T18:32:53;19.90;99.90
9403;DHT22;4741;49.834;10.740;2022-07-29T18:35:39;19.90;99.90
9403;DHT22;4741;49.834;10.740;2022-07-29T18:38:06;18.00;99.90
9403;DHT22;4741;49.834;10.740;2022-07-29T18:40:33;19.80;99.90
9403;DHT22;4741;49.834;10.740;2022-07-29T18:42:59;19.80;99.90
9403;DHT22;4741;49.834;10.740;2022-07-29T18:45:26;17.70;99.90
9403;DHT22;4741;49.834;10.740;2022-07-29T18:47:54;18.20;99.90
9403;DHT22;4741;49.834;10.740;2022-07-29T18:50:21;19.60;99.90
9403;DHT22;4741;49.834;10.740;2022-07-29T18:52:55;17.40;99.90
9403;DHT22;4741;49.834;10.740;2022-07-29T18:55:24;18.20;99.90
9403;DHT22;4741;49.834;10.740;2022-07-29T18:57:51;18.30;99.90
9403;DHT22;4741;49.834;10.740;2022-07-29T19:00:22;19.90;99.90
9403;DHT22;4741;49.834;10.740;2022-07-29T19:02:49;19.80;99.90
9403;DHT22;4741;49.834;10.740;2022-07-29T19:05:16;19.70;99.90
9403;DHT22;4741;49.834;10.740;2022-07-29T19:07:43;19.90;99.90
9403;DHT22;4741;49.834;10.740;2022-07-29T19:10:10;19.90;99.90
9403;DHT22;4741;49.834;10.740;2022-07-29T19:12:37;20.30;99.90
9403;DHT22;4741;49.834;10.740;2022-07-29T19:15:03;19.20;99.90
9403;DHT22;4741;49.834;10.740;2022-07-29T19:17:30;18.50;99.90
9403;DHT22;4741;49.834;10.740;2022-07-29T19:19:57;19.10;99.90
9403;DHT22;4741;49.834;10.740;2022-07-29T19:22:24;19.10;99.90
9403;DHT22;4741;49.834;10.740;2022-07-29T19:24:50;19.60;99.90
9403;DHT22;4741;49.834;10.740;2022-07-29T19:27:18;19.10;99.90
9403;DHT22;4741;49.834;10.740;2022-07-29T19:29:45;18.80;99.90
9403;DHT22;4741;49.834;10.740;2022-07-29T19:32:12;20.30;99.90
9403;DHT22;4741;49.834;10.740;2022-07-29T19:34:50;19.90;99.90
9403;DHT22;4741;49.834;10.740;2022-07-29T19:37:35;18.30;99.90
9403;DHT22;4741;49.834;10.740;2022-07-29T19:40:03;18.80;99.90
9403;DHT22;4741;49.834;10.740;2022-07-29T19:44:57;19.00;99.90
9403;DHT22;4741;49.834;10.740;2022-07-29T19:47:23;18.30;99.90
9403;DHT22;4741;49.834;10.740;2022-07-29T19:52:17;18.80;99.90
9403;DHT22;4741;49.834;10.740;2022-07-29T19:54:44;19.20;99.90
9403;DHT22;4741;49.834;10.740;2022-07-29T19:57:10;20.40;99.90
9403;DHT22;4741;49.834;10.740;2022-07-29T19:59:37;20.40;99.90
9403;DHT22;4741;49.834;10.740;2022-07-29T20:02:04;19.90;99.90
9403;DHT22;4741;49.834;10.740;2022-07-29T20:04:31;20.20;99.90
9403;DHT22;4741;49.834;10.740;2022-07-29T20:06:59;20.50;99.90
9403;DHT22;4741;49.834;10.740;2022-07-29T20:09:27;19.80;99.90
9403;DHT22;4741;49.834;10.740;2022-07-29T20:11:54;20.50;99.90
9403;DHT22;4741;49.834;10.740;2022-07-29T20:14:21;18.10;99.90
9403;DHT22;4741;49.834;10.740;2022-07-29T20:16:48;20.10;99.90